sensor_id;sensor_type;location;lat;lon;timestamp;P1;durP1;ratioP1;P2;durP2;ratioP2
65656;SDS011;57397;50.096;14.404;2023-07-16T00:00:57;2.53;;;2.33;;
65656;SDS011;57397;50.096;14.404;2023-07-16T00:03:22;2.42;;;2.22;;
65656;SDS011;57397;50.096;14.404;2023-07-16T00:05:51;2.67;;;2.47;;
65656;SDS011;57397;50.096;14.404;2023-07-16T00:08:16;2.60;;;2.40;;
65656;SDS011;57397;50.096;14.404;2023-07-16T00:10:42;2.60;;;2.40;;
65656;SDS011;57397;50.096;14.404;2023-07-16T00:13:07;2.80;;;2.50;;
65656;SDS011;57397;50.096;14.404;2023-07-16T00:15:33;3.13;;;2.75;;
65656;SDS011;57397;50.096;14.404;2023-07-16T00:17:59;2.60;;;2.40;;
65656;SDS011;57397;50.096;14.404;2023-07-16T00:20:24;2.97;;;2.58;;
65656;SDS011;57397;50.096;14.404;2023-07-16T00:22:50;3.10;;;2.45;;
65656;SDS011;57397;50.096;14.404;2023-07-16T00:25:16;2.53;;;2.33;;
65656;SDS011;57397;50.096;14.404;2023-07-16T00:27:42;2.65;;;2.45;;
65656;SDS011;57397;50.096;14.404;2023-07-16T00:30:07;2.53;;;2.30;;
65656;SDS011;57397;50.096;14.404;2023-07-16T00:32:33;2.72;;;2.53;;
65656;SDS011;57397;50.096;14.404;2023-07-16T00:35:00;2.70;;;2.50;;
65656;SDS011;57397;50.096;14.404;2023-07-16T00:37:28;2.70;;;2.40;;
65656;SDS011;57397;50.096;14.404;2023-07-16T00:39:54;3.70;;;2.55;;
65656;SDS011;57397;50.096;14.404;2023-07-16T00:42:19;3.08;;;2.78;;
65656;SDS011;57397;50.096;14.404;2023-07-16T00:44:45;3.15;;;2.40;;
65656;SDS011;57397;50.096;14.404;2023-07-16T00:47:11;3.20;;;2.58;;
65656;SDS011;57397;50.096;14.404;2023-07-16T00:49:37;2.60;;;2.40;;
65656;SDS011;57397;50.096;14.404;2023-07-16T00:52:03;2.47;;;2.28;;
65656;SDS011;57397;50.096;14.404;2023-07-16T00:54:30;2.97;;;2.67;;
65656;SDS011;57397;50.096;14.404;2023-07-16T00:56:56;2.80;;;2.60;;
65656;SDS011;57397;50.096;14.404;2023-07-16T00:59:21;2.70;;;2.50;;
65656;SDS011;57397;50.096;14.404;2023-07-16T01:01:47;2.80;;;2.60;;
65656;SDS011;57397;50.096;14.404;2023-07-16T01:04:12;2.67;;;2.47;;
65656;SDS011;57397;50.096;14.404;2023-07-16T01:06:39;3.22;;;2.58;;
65656;SDS011;57397;50.096;14.404;2023-07-16T01:09:07;2.97;;;2.67;;
65656;SDS011;57397;50.096;14.404;2023-07-16T01:11:54;3.97;;;2.70;;
65656;SDS011;57397;50.096;14.404;2023-07-16T01:14:20;3.20;;;2.90;;
65656;SDS011;57397;50.096;14.404;2023-07-16T01:16:46;3.10;;;2.60;;
65656;SDS011;57397;50.096;14.404;2023-07-16T01:19:12;2.95;;;2.65;;
65656;SDS011;57397;50.096;14.404;2023-07-16T01:21:50;3.20;;;2.83;;
65656;SDS011;57397;50.096;14.404;2023-07-16T01:30:07;2.80;;;2.58;;
65656;SDS011;57397;50.096;14.404;2023-07-16T01:32:34;3.00;;;2.70;;
65656;SDS011;57397;50.096;14.404;2023-07-16T01:35:00;3.40;;;2.90;;
65656;SDS011;57397;50.096;14.404;2023-07-16T01:37:27;3.95;;;2.80;;
65656;SDS011;57397;50.096;14.404;2023-07-16T01:39:53;3.83;;;2.90;;
65656;SDS011;57397;50.096;14.404;2023-07-16T01:42:18;3.05;;;2.75;;
65656;SDS011;57397;50.096;14.404;2023-07-16T01:44:44;3.28;;;2.78;;
65656;SDS011;57397;50.096;14.404;2023-07-16T01:47:11;2.88;;;2.58;;
65656;SDS011;57397;50.096;14.404;2023-07-16T01:49:41;2.97;;;2.72;;
65656;SDS011;57397;50.096;14.404;2023-07-16T01:52:07;3.20;;;2.90;;
65656;SDS011;57397;50.096;14.404;2023-07-16T01:54:34;3.28;;;2.88;;
65656;SDS011;57397;50.096;14.404;2023-07-16T01:57:00;2.92;;;2.70;;
65656;SDS011;57397;50.096;14.404;2023-07-16T01:59:26;3.50;;;2.92;;
65656;SDS011;57397;50.096;14.404;2023-07-16T02:01:51;3.08;;;2.70;;
65656;SDS011;57397;50.096;14.404;2023-07-16T02:04:17;3.10;;;2.80;;
65656;SDS011;57397;50.096;14.404;2023-07-16T02:06:42;3.30;;;3.00;;
65656;SDS011;57397;50.096;14.404;2023-07-16T02:09:08;3.10;;;2.80;;
65656;SDS011;57397;50.096;14.404;2023-07-16T02:11:35;2.80;;;2.55;;
65656;SDS011;57397;50.096;14.404;2023-07-16T02:14:00;3.88;;;2.72;;
65656;SDS011;57397;50.096;14.404;2023-07-16T02:16:25;2.97;;;2.70;;
65656;SDS011;57397;50.096;14.404;2023-07-16T02:18:51;2.90;;;2.60;;
65656;SDS011;57397;50.096;14.404;2023-07-16T02:21:16;3.17;;;2.47;;
65656;SDS011;57397;50.096;14.404;2023-07-16T02:23:42;3.03;;;2.63;;
65656;SDS011;57397;50.096;14.404;2023-07-16T02:26:07;3.20;;;2.83;;
65656;SDS011;57397;50.096;14.404;2023-07-16T02:28:33;4.55;;;2.97;;
65656;SDS011;57397;50.096;14.404;2023-07-16T02:30:58;2.80;;;2.60;;
65656;SDS011;57397;50.096;14.404;2023-07-16T02:33:24;3.15;;;2.85;;
65656;SDS011;57397;50.096;14.404;2023-07-16T02:35:49;6.38;;;2.63;;
65656;SDS011;57397;50.096;14.404;2023-07-16T02:38:17;3.63;;;2.60;;
65656;SDS011;57397;50.096;14.404;2023-07-16T02:40:46;2.95;;;2.65;;
65656;SDS011;57397;50.096;14.404;2023-07-16T02:43:12;2.90;;;2.58;;
65656;SDS011;57397;50.096;14.404;2023-07-16T02:45:38;2.60;;;2.40;;
65656;SDS011;57397;50.096;14.404;2023-07-16T02:48:04;2.88;;;2.50;;
65656;SDS011;57397;50.096;14.404;2023-07-16T02:50:33;2.85;;;2.58;;
65656;SDS011;57397;50.096;14.404;2023-07-16T02:53:00;2.75;;;2.55;;
65656;SDS011;57397;50.096;14.404;2023-07-16T02:55:27;5.05;;;2.80;;
65656;SDS011;57397;50.096;14.404;2023-07-16T02:57:52;2.55;;;2.35;;
65656;SDS011;57397;50.096;14.404;2023-07-16T03:00:18;2.90;;;2.60;;
65656;SDS011;57397;50.096;14.404;2023-07-16T03:02:43;3.22;;;2.33;;
65656;SDS011;57397;50.096;14.404;2023-07-16T03:05:09;3.85;;;2.60;;
65656;SDS011;57397;50.096;14.404;2023-07-16T03:07:34;3.70;;;2.67;;
65656;SDS011;57397;50.096;14.404;2023-07-16T03:10:00;2.90;;;2.60;;
65656;SDS011;57397;50.096;14.404;2023-07-16T03:12:25;3.22;;;2.38;;
65656;SDS011;57397;50.096;14.404;2023-07-16T03:14:51;2.60;;;2.40;;
65656;SDS011;57397;50.096;14.404;2023-07-16T03:17:19;2.80;;;2.47;;
65656;SDS011;57397;50.096;14.404;2023-07-16T03:19:46;2.85;;;2.42;;
65656;SDS011;57397;50.096;14.404;2023-07-16T03:22:12;2.88;;;2.38;;
65656;SDS011;57397;50.096;14.404;2023-07-16T03:24:37;3.42;;;2.35;;
65656;SDS011;57397;50.096;14.404;2023-07-16T03:27:03;2.65;;;2.38;;
65656;SDS011;57397;50.096;14.404;2023-07-16T03:29:28;3.55;;;2.40;;
65656;SDS011;57397;50.096;14.404;2023-07-16T03:31:54;3.17;;;2.40;;
65656;SDS011;57397;50.096;14.404;2023-07-16T03:34:19;3.70;;;2.33;;
65656;SDS011;57397;50.096;14.404;2023-07-16T03:36:45;2.90;;;2.20;;
65656;SDS011;57397;50.096;14.404;2023-07-16T03:39:11;2.60;;;2.33;;
65656;SDS011;57397;50.096;14.404;2023-07-16T03:41:36;3.35;;;2.40;;
65656;SDS011;57397;50.096;14.404;2023-07-16T03:44:02;2.42;;;2.17;;
65656;SDS011;57397;50.096;14.404;2023-07-16T03:46:27;2.65;;;2.30;;
65656;SDS011;57397;50.096;14.404;2023-07-16T03:48:53;2.65;;;2.30;;
65656;SDS011;57397;50.096;14.404;2023-07-16T03:51:18;2.30;;;2.10;;
65656;SDS011;57397;50.096;14.404;2023-07-16T03:53:44;2.60;;;2.08;;
65656;SDS011;57397;50.096;14.404;2023-07-16T03:56:09;2.80;;;2.00;;
65656;SDS011;57397;50.096;14.404;2023-07-16T03:58:35;2.10;;;1.90;;
65656;SDS011;57397;50.096;14.404;2023-07-16T04:01:00;2.10;;;1.90;;
65656;SDS011;57397;50.096;14.404;2023-07-16T04:03:26;2.75;;;2.00;;
65656;SDS011;57397;50.096;14.404;2023-07-16T04:05:51;2.45;;;2.13;;
65656;SDS011;57397;50.096;14.404;2023-07-16T04:08:17;2.22;;;2.00;;
65656;SDS011;57397;50.096;14.404;2023-07-16T04:10:42;2.20;;;2.00;;
65656;SDS011;57397;50.096;14.404;2023-07-16T04:13:08;2.10;;;1.83;;
65656;SDS011;57397;50.096;14.404;2023-07-16T04:15:33;2.42;;;1.83;;
65656;SDS011;57397;50.096;14.404;2023-07-16T04:17:59;3.15;;;1.92;;
65656;SDS011;57397;50.096;14.404;2023-07-16T04:20:24;2.95;;;2.00;;
65656;SDS011;57397;50.096;14.404;2023-07-16T04:22:50;2.55;;;1.83;;
65656;SDS011;57397;50.096;14.404;2023-07-16T04:25:15;2.00;;;1.70;;
65656;SDS011;57397;50.096;14.404;2023-07-16T04:27:41;2.33;;;1.90;;
65656;SDS011;57397;50.096;14.404;2023-07-16T04:30:08;2.20;;;1.98;;
65656;SDS011;57397;50.096;14.404;2023-07-16T04:32:34;2.00;;;1.80;;
65656;SDS011;57397;50.096;14.404;2023-07-16T04:35:00;2.35;;;1.88;;
65656;SDS011;57397;50.096;14.404;2023-07-16T04:37:25;2.45;;;1.80;;
65656;SDS011;57397;50.096;14.404;2023-07-16T04:39:51;3.58;;;2.10;;
65656;SDS011;57397;50.096;14.404;2023-07-16T04:42:16;2.38;;;1.80;;
65656;SDS011;57397;50.096;14.404;2023-07-16T04:44:42;2.35;;;1.90;;
65656;SDS011;57397;50.096;14.404;2023-07-16T04:47:07;2.33;;;1.70;;
65656;SDS011;57397;50.096;14.404;2023-07-16T04:49:34;1.92;;;1.65;;
65656;SDS011;57397;50.096;14.404;2023-07-16T04:52:01;3.80;;;1.85;;
65656;SDS011;57397;50.096;14.404;2023-07-16T04:54:27;2.63;;;1.65;;
65656;SDS011;57397;50.096;14.404;2023-07-16T04:56:52;1.80;;;1.60;;
65656;SDS011;57397;50.096;14.404;2023-07-16T04:59:18;1.70;;;1.60;;
65656;SDS011;57397;50.096;14.404;2023-07-16T05:01:43;2.70;;;1.60;;
65656;SDS011;57397;50.096;14.404;2023-07-16T05:04:08;1.85;;;1.60;;
65656;SDS011;57397;50.096;14.404;2023-07-16T05:06:34;2.03;;;1.83;;
65656;SDS011;57397;50.096;14.404;2023-07-16T05:08:59;1.73;;;1.55;;
65656;SDS011;57397;50.096;14.404;2023-07-16T05:11:25;2.60;;;1.65;;
65656;SDS011;57397;50.096;14.404;2023-07-16T05:13:51;2.72;;;1.80;;
65656;SDS011;57397;50.096;14.404;2023-07-16T05:16:16;1.75;;;1.65;;
65656;SDS011;57397;50.096;14.404;2023-07-16T05:18:42;1.60;;;1.50;;
65656;SDS011;57397;50.096;14.404;2023-07-16T05:21:07;2.20;;;1.55;;
65656;SDS011;57397;50.096;14.404;2023-07-16T05:23:33;1.70;;;1.55;;
65656;SDS011;57397;50.096;14.404;2023-07-16T05:25:58;1.70;;;1.40;;
65656;SDS011;57397;50.096;14.404;2023-07-16T05:28:24;3.28;;;1.70;;
65656;SDS011;57397;50.096;14.404;2023-07-16T05:30:57;2.10;;;1.50;;
65656;SDS011;57397;50.096;14.404;2023-07-16T05:33:25;2.40;;;1.52;;
65656;SDS011;57397;50.096;14.404;2023-07-16T05:35:51;1.77;;;1.60;;
65656;SDS011;57397;50.096;14.404;2023-07-16T05:38:16;2.55;;;1.70;;
65656;SDS011;57397;50.096;14.404;2023-07-16T05:40:42;2.00;;;1.63;;
65656;SDS011;57397;50.096;14.404;2023-07-16T05:43:07;3.00;;;1.80;;
65656;SDS011;57397;50.096;14.404;2023-07-16T05:45:36;1.90;;;1.58;;
65656;SDS011;57397;50.096;14.404;2023-07-16T05:48:02;2.30;;;1.80;;
65656;SDS011;57397;50.096;14.404;2023-07-16T05:50:28;1.90;;;1.70;;
65656;SDS011;57397;50.096;14.404;2023-07-16T05:52:54;1.55;;;1.40;;
65656;SDS011;57397;50.096;14.404;2023-07-16T05:55:20;1.50;;;1.40;;
65656;SDS011;57397;50.096;14.404;2023-07-16T05:57:45;1.90;;;1.58;;
65656;SDS011;57397;50.096;14.404;2023-07-16T06:00:11;1.52;;;1.42;;
65656;SDS011;57397;50.096;14.404;2023-07-16T06:02:38;2.42;;;1.85;;
65656;SDS011;57397;50.096;14.404;2023-07-16T06:05:04;2.83;;;1.60;;
65656;SDS011;57397;50.096;14.404;2023-07-16T06:07:30;1.60;;;1.50;;
65656;SDS011;57397;50.096;14.404;2023-07-16T06:09:59;2.53;;;1.77;;
65656;SDS011;57397;50.096;14.404;2023-07-16T06:12:24;2.05;;;1.50;;
65656;SDS011;57397;50.096;14.404;2023-07-16T06:14:50;2.28;;;1.50;;
65656;SDS011;57397;50.096;14.404;2023-07-16T06:17:15;1.77;;;1.45;;
65656;SDS011;57397;50.096;14.404;2023-07-16T06:19:41;1.73;;;1.60;;
65656;SDS011;57397;50.096;14.404;2023-07-16T06:22:07;2.10;;;1.45;;
65656;SDS011;57397;50.096;14.404;2023-07-16T06:24:34;2.30;;;1.60;;
65656;SDS011;57397;50.096;14.404;2023-07-16T06:27:00;2.03;;;1.63;;
65656;SDS011;57397;50.096;14.404;2023-07-16T06:29:25;3.05;;;1.80;;
65656;SDS011;57397;50.096;14.404;2023-07-16T06:31:54;1.50;;;1.40;;
65656;SDS011;57397;50.096;14.404;2023-07-16T06:34:21;1.80;;;1.60;;
65656;SDS011;57397;50.096;14.404;2023-07-16T06:36:47;2.13;;;1.50;;
65656;SDS011;57397;50.096;14.404;2023-07-16T06:39:13;2.33;;;1.60;;
65656;SDS011;57397;50.096;14.404;2023-07-16T06:41:38;1.80;;;1.58;;
65656;SDS011;57397;50.096;14.404;2023-07-16T06:44:04;1.98;;;1.55;;
65656;SDS011;57397;50.096;14.404;2023-07-16T06:46:29;1.48;;;1.38;;
65656;SDS011;57397;50.096;14.404;2023-07-16T06:48:55;2.03;;;1.60;;
65656;SDS011;57397;50.096;14.404;2023-07-16T06:51:21;1.60;;;1.50;;
65656;SDS011;57397;50.096;14.404;2023-07-16T06:53:47;1.75;;;1.60;;
65656;SDS011;57397;50.096;14.404;2023-07-16T06:56:12;1.60;;;1.50;;
65656;SDS011;57397;50.096;14.404;2023-07-16T06:58:38;1.50;;;1.40;;
65656;SDS011;57397;50.096;14.404;2023-07-16T07:01:03;2.15;;;1.52;;
65656;SDS011;57397;50.096;14.404;2023-07-16T07:03:29;2.10;;;1.77;;
65656;SDS011;57397;50.096;14.404;2023-07-16T07:05:54;1.52;;;1.42;;
65656;SDS011;57397;50.096;14.404;2023-07-16T07:08:20;2.08;;;1.50;;
65656;SDS011;57397;50.096;14.404;2023-07-16T07:10:49;1.80;;;1.55;;
65656;SDS011;57397;50.096;14.404;2023-07-16T07:13:15;1.77;;;1.58;;
65656;SDS011;57397;50.096;14.404;2023-07-16T07:15:41;1.92;;;1.60;;
65656;SDS011;57397;50.096;14.404;2023-07-16T07:18:07;1.67;;;1.58;;
65656;SDS011;57397;50.096;14.404;2023-07-16T07:20:33;1.60;;;1.50;;
65656;SDS011;57397;50.096;14.404;2023-07-16T07:22:58;1.80;;;1.45;;
65656;SDS011;57397;50.096;14.404;2023-07-16T07:25:27;2.10;;;1.70;;
65656;SDS011;57397;50.096;14.404;2023-07-16T07:27:53;2.95;;;1.58;;
65656;SDS011;57397;50.096;14.404;2023-07-16T07:30:18;2.47;;;1.58;;
65656;SDS011;57397;50.096;14.404;2023-07-16T07:32:44;2.10;;;1.60;;
65656;SDS011;57397;50.096;14.404;2023-07-16T07:35:10;1.80;;;1.60;;
65656;SDS011;57397;50.096;14.404;2023-07-16T07:37:36;1.63;;;1.50;;
65656;SDS011;57397;50.096;14.404;2023-07-16T07:40:01;2.00;;;1.60;;
65656;SDS011;57397;50.096;14.404;2023-07-16T07:42:28;2.53;;;1.35;;
65656;SDS011;57397;50.096;14.404;2023-07-16T07:44:54;1.77;;;1.60;;
65656;SDS011;57397;50.096;14.404;2023-07-16T07:47:20;2.28;;;1.80;;
65656;SDS011;57397;50.096;14.404;2023-07-16T07:49:45;1.90;;;1.70;;
65656;SDS011;57397;50.096;14.404;2023-07-16T07:52:11;2.00;;;1.80;;
65656;SDS011;57397;50.096;14.404;2023-07-16T07:54:36;1.67;;;1.50;;
65656;SDS011;57397;50.096;14.404;2023-07-16T07:57:03;2.17;;;1.80;;
65656;SDS011;57397;50.096;14.404;2023-07-16T07:59:29;2.42;;;1.70;;
65656;SDS011;57397;50.096;14.404;2023-07-16T08:01:55;2.15;;;1.80;;
65656;SDS011;57397;50.096;14.404;2023-07-16T08:04:21;2.05;;;1.70;;
65656;SDS011;57397;50.096;14.404;2023-07-16T08:06:46;2.63;;;1.88;;
65656;SDS011;57397;50.096;14.404;2023-07-16T08:09:12;2.50;;;1.90;;
65656;SDS011;57397;50.096;14.404;2023-07-16T08:11:37;2.45;;;1.98;;
65656;SDS011;57397;50.096;14.404;2023-07-16T08:14:03;2.28;;;1.70;;
65656;SDS011;57397;50.096;14.404;2023-07-16T08:16:28;2.28;;;2.00;;
65656;SDS011;57397;50.096;14.404;2023-07-16T08:18:54;1.88;;;1.60;;
65656;SDS011;57397;50.096;14.404;2023-07-16T08:21:19;1.90;;;1.70;;
65656;SDS011;57397;50.096;14.404;2023-07-16T08:23:46;1.90;;;1.70;;
65656;SDS011;57397;50.096;14.404;2023-07-16T08:26:15;2.70;;;1.70;;
65656;SDS011;57397;50.096;14.404;2023-07-16T08:28:41;1.83;;;1.60;;
65656;SDS011;57397;50.096;14.404;2023-07-16T08:31:07;2.08;;;1.60;;
65656;SDS011;57397;50.096;14.404;2023-07-16T08:33:32;2.00;;;1.65;;
65656;SDS011;57397;50.096;14.404;2023-07-16T08:35:58;2.72;;;1.83;;
65656;SDS011;57397;50.096;14.404;2023-07-16T08:38:24;2.00;;;1.80;;
65656;SDS011;57397;50.096;14.404;2023-07-16T08:40:50;1.80;;;1.60;;
65656;SDS011;57397;50.096;14.404;2023-07-16T08:43:15;2.15;;;1.60;;
65656;SDS011;57397;50.096;14.404;2023-07-16T08:45:41;1.95;;;1.75;;
65656;SDS011;57397;50.096;14.404;2023-07-16T08:48:10;2.08;;;1.60;;
65656;SDS011;57397;50.096;14.404;2023-07-16T08:50:36;2.70;;;1.80;;
65656;SDS011;57397;50.096;14.404;2023-07-16T08:53:06;1.90;;;1.70;;
65656;SDS011;57397;50.096;14.404;2023-07-16T08:55:33;1.90;;;1.70;;
65656;SDS011;57397;50.096;14.404;2023-07-16T08:57:59;1.70;;;1.60;;
65656;SDS011;57397;50.096;14.404;2023-07-16T09:00:28;2.00;;;1.70;;
65656;SDS011;57397;50.096;14.404;2023-07-16T09:02:54;2.40;;;1.70;;
65656;SDS011;57397;50.096;14.404;2023-07-16T09:05:21;2.17;;;1.50;;
65656;SDS011;57397;50.096;14.404;2023-07-16T09:07:49;1.73;;;1.48;;
65656;SDS011;57397;50.096;14.404;2023-07-16T09:10:15;3.03;;;1.65;;
65656;SDS011;57397;50.096;14.404;2023-07-16T09:12:44;1.90;;;1.60;;
65656;SDS011;57397;50.096;14.404;2023-07-16T09:15:16;2.10;;;1.50;;
65656;SDS011;57397;50.096;14.404;2023-07-16T09:17:47;1.90;;;1.70;;
65656;SDS011;57397;50.096;14.404;2023-07-16T09:20:17;1.77;;;1.40;;
65656;SDS011;57397;50.096;14.404;2023-07-16T09:22:43;1.70;;;1.60;;
65656;SDS011;57397;50.096;14.404;2023-07-16T09:25:09;1.65;;;1.50;;
65656;SDS011;57397;50.096;14.404;2023-07-16T09:27:35;1.50;;;1.40;;
65656;SDS011;57397;50.096;14.404;2023-07-16T09:30:02;1.85;;;1.45;;
65656;SDS011;57397;50.096;14.404;2023-07-16T09:32:34;2.53;;;1.77;;
65656;SDS011;57397;50.096;14.404;2023-07-16T09:35:00;1.85;;;1.50;;
65656;SDS011;57397;50.096;14.404;2023-07-16T09:37:26;2.00;;;1.63;;
65656;SDS011;57397;50.096;14.404;2023-07-16T09:39:53;1.70;;;1.50;;
65656;SDS011;57397;50.096;14.404;2023-07-16T09:42:19;1.92;;;1.58;;
65656;SDS011;57397;50.096;14.404;2023-07-16T09:44:46;2.08;;;1.50;;
65656;SDS011;57397;50.096;14.404;2023-07-16T09:47:12;1.83;;;1.60;;
65656;SDS011;57397;50.096;14.404;2023-07-16T09:49:38;1.52;;;1.42;;
65656;SDS011;57397;50.096;14.404;2023-07-16T09:52:03;1.88;;;1.52;;
65656;SDS011;57397;50.096;14.404;2023-07-16T09:54:31;2.65;;;1.60;;
65656;SDS011;57397;50.096;14.404;2023-07-16T09:56:58;1.80;;;1.70;;
65656;SDS011;57397;50.096;14.404;2023-07-16T09:59:25;2.75;;;1.50;;
65656;SDS011;57397;50.096;14.404;2023-07-16T10:01:52;1.50;;;1.40;;
65656;SDS011;57397;50.096;14.404;2023-07-16T10:04:20;1.90;;;1.50;;
65656;SDS011;57397;50.096;14.404;2023-07-16T10:06:55;2.33;;;1.40;;
65656;SDS011;57397;50.096;14.404;2023-07-16T10:09:42;1.60;;;1.40;;
65656;SDS011;57397;50.096;14.404;2023-07-16T10:12:17;1.45;;;1.35;;
65656;SDS011;57397;50.096;14.404;2023-07-16T10:14:45;2.50;;;1.50;;
65656;SDS011;57397;50.096;14.404;2023-07-16T10:17:12;2.55;;;1.40;;
65656;SDS011;57397;50.096;14.404;2023-07-16T10:19:47;2.28;;;1.45;;
65656;SDS011;57397;50.096;14.404;2023-07-16T10:22:56;2.00;;;1.40;;
65656;SDS011;57397;50.096;14.404;2023-07-16T10:27:47;1.75;;;1.48;;
65656;SDS011;57397;50.096;14.404;2023-07-16T10:30:13;1.88;;;1.33;;
65656;SDS011;57397;50.096;14.404;2023-07-16T10:32:39;1.50;;;1.40;;
65656;SDS011;57397;50.096;14.404;2023-07-16T10:35:06;1.67;;;1.40;;
65656;SDS011;57397;50.096;14.404;2023-07-16T10:37:34;1.70;;;1.38;;
65656;SDS011;57397;50.096;14.404;2023-07-16T10:40:00;1.55;;;1.30;;
65656;SDS011;57397;50.096;14.404;2023-07-16T10:42:26;2.03;;;1.50;;
65656;SDS011;57397;50.096;14.404;2023-07-16T10:44:53;1.60;;;1.40;;
65656;SDS011;57397;50.096;14.404;2023-07-16T10:47:30;1.90;;;1.42;;
65656;SDS011;57397;50.096;14.404;2023-07-16T10:49:56;1.83;;;1.30;;
65656;SDS011;57397;50.096;14.404;2023-07-16T10:52:22;1.98;;;1.50;;
65656;SDS011;57397;50.096;14.404;2023-07-16T10:54:48;1.45;;;1.30;;
65656;SDS011;57397;50.096;14.404;2023-07-16T10:57:20;1.67;;;1.33;;
65656;SDS011;57397;50.096;14.404;2023-07-16T10:59:46;1.58;;;1.33;;
65656;SDS011;57397;50.096;14.404;2023-07-16T11:02:14;1.48;;;1.30;;
65656;SDS011;57397;50.096;14.404;2023-07-16T11:04:42;1.50;;;1.40;;
65656;SDS011;57397;50.096;14.404;2023-07-16T11:07:09;1.55;;;1.42;;
65656;SDS011;57397;50.096;14.404;2023-07-16T11:09:43;1.42;;;1.33;;
65656;SDS011;57397;50.096;14.404;2023-07-16T11:12:12;1.95;;;1.30;;
65656;SDS011;57397;50.096;14.404;2023-07-16T11:14:42;1.73;;;1.45;;
65656;SDS011;57397;50.096;14.404;2023-07-16T11:17:18;1.67;;;1.40;;
65656;SDS011;57397;50.096;14.404;2023-07-16T11:19:45;1.45;;;1.25;;
65656;SDS011;57397;50.096;14.404;2023-07-16T11:22:13;2.25;;;1.30;;
65656;SDS011;57397;50.096;14.404;2023-07-16T11:24:42;1.95;;;1.50;;
65656;SDS011;57397;50.096;14.404;2023-07-16T11:27:16;1.55;;;1.38;;
65656;SDS011;57397;50.096;14.404;2023-07-16T11:29:52;1.42;;;1.25;;
65656;SDS011;57397;50.096;14.404;2023-07-16T11:32:32;1.42;;;1.15;;
65656;SDS011;57397;50.096;14.404;2023-07-16T11:35:00;1.40;;;1.20;;
65656;SDS011;57397;50.096;14.404;2023-07-16T11:37:27;1.50;;;1.38;;
65656;SDS011;57397;50.096;14.404;2023-07-16T11:42:31;1.40;;;1.30;;
65656;SDS011;57397;50.096;14.404;2023-07-16T11:44:58;1.50;;;1.25;;
65656;SDS011;57397;50.096;14.404;2023-07-16T11:47:27;1.60;;;1.20;;
65656;SDS011;57397;50.096;14.404;2023-07-16T11:49:53;1.88;;;1.30;;
65656;SDS011;57397;50.096;14.404;2023-07-16T11:52:23;1.67;;;1.27;;
65656;SDS011;57397;50.096;14.404;2023-07-16T11:54:54;1.40;;;1.20;;
65656;SDS011;57397;50.096;14.404;2023-07-16T11:57:21;1.85;;;1.30;;
65656;SDS011;57397;50.096;14.404;2023-07-16T11:59:46;1.80;;;1.35;;
65656;SDS011;57397;50.096;14.404;2023-07-16T12:02:12;1.42;;;1.33;;
65656;SDS011;57397;50.096;14.404;2023-07-16T12:04:38;1.40;;;1.30;;
65656;SDS011;57397;50.096;14.404;2023-07-16T12:07:03;1.35;;;1.15;;
65656;SDS011;57397;50.096;14.404;2023-07-16T12:09:29;1.60;;;1.30;;
65656;SDS011;57397;50.096;14.404;2023-07-16T12:11:55;1.50;;;1.30;;
65656;SDS011;57397;50.096;14.404;2023-07-16T12:14:21;1.38;;;1.27;;
65656;SDS011;57397;50.096;14.404;2023-07-16T12:16:46;1.60;;;1.40;;
65656;SDS011;57397;50.096;14.404;2023-07-16T12:19:12;1.63;;;1.25;;
65656;SDS011;57397;50.096;14.404;2023-07-16T12:21:37;1.45;;;1.30;;
65656;SDS011;57397;50.096;14.404;2023-07-16T12:24:03;1.35;;;1.25;;
65656;SDS011;57397;50.096;14.404;2023-07-16T12:26:29;1.83;;;1.30;;
65656;SDS011;57397;50.096;14.404;2023-07-16T12:28:55;1.33;;;1.13;;
65656;SDS011;57397;50.096;14.404;2023-07-16T12:31:20;1.40;;;1.30;;
65656;SDS011;57397;50.096;14.404;2023-07-16T12:33:46;1.55;;;1.27;;
65656;SDS011;57397;50.096;14.404;2023-07-16T12:36:13;1.45;;;1.35;;
65656;SDS011;57397;50.096;14.404;2023-07-16T12:38:39;1.20;;;1.10;;
65656;SDS011;57397;50.096;14.404;2023-07-16T12:41:05;1.20;;;1.10;;
65656;SDS011;57397;50.096;14.404;2023-07-16T12:43:31;1.75;;;1.20;;
65656;SDS011;57397;50.096;14.404;2023-07-16T12:45:59;1.52;;;1.30;;
65656;SDS011;57397;50.096;14.404;2023-07-16T12:48:29;1.40;;;1.30;;
65656;SDS011;57397;50.096;14.404;2023-07-16T12:50:55;1.38;;;1.10;;
65656;SDS011;57397;50.096;14.404;2023-07-16T12:53:21;1.40;;;1.20;;
65656;SDS011;57397;50.096;14.404;2023-07-16T12:55:46;2.00;;;1.33;;
65656;SDS011;57397;50.096;14.404;2023-07-16T12:58:12;1.70;;;1.33;;
65656;SDS011;57397;50.096;14.404;2023-07-16T13:00:37;1.20;;;1.10;;
65656;SDS011;57397;50.096;14.404;2023-07-16T13:03:03;1.20;;;1.10;;
65656;SDS011;57397;50.096;14.404;2023-07-16T13:05:29;1.65;;;1.20;;
65656;SDS011;57397;50.096;14.404;2023-07-16T13:07:55;1.65;;;1.20;;
65656;SDS011;57397;50.096;14.404;2023-07-16T13:10:20;1.20;;;1.10;;
65656;SDS011;57397;50.096;14.404;2023-07-16T13:12:46;1.40;;;1.20;;
65656;SDS011;57397;50.096;14.404;2023-07-16T13:15:11;1.30;;;1.08;;
65656;SDS011;57397;50.096;14.404;2023-07-16T13:17:37;1.40;;;1.20;;
65656;SDS011;57397;50.096;14.404;2023-07-16T13:20:03;1.88;;;1.20;;
65656;SDS011;57397;50.096;14.404;2023-07-16T13:22:30;1.40;;;1.25;;
65656;SDS011;57397;50.096;14.404;2023-07-16T13:24:55;1.40;;;1.10;;
65656;SDS011;57397;50.096;14.404;2023-07-16T13:27:22;1.50;;;1.40;;
65656;SDS011;57397;50.096;14.404;2023-07-16T13:29:49;1.50;;;1.30;;
65656;SDS011;57397;50.096;14.404;2023-07-16T13:32:18;1.80;;;1.25;;
65656;SDS011;57397;50.096;14.404;2023-07-16T13:34:43;1.55;;;1.20;;
65656;SDS011;57397;50.096;14.404;2023-07-16T13:37:09;1.55;;;1.38;;
65656;SDS011;57397;50.096;14.404;2023-07-16T13:39:36;2.00;;;1.30;;
65656;SDS011;57397;50.096;14.404;2023-07-16T13:42:02;2.20;;;1.10;;
65656;SDS011;57397;50.096;14.404;2023-07-16T13:44:31;1.88;;;1.20;;
65656;SDS011;57397;50.096;14.404;2023-07-16T13:46:59;1.30;;;0.90;;
65656;SDS011;57397;50.096;14.404;2023-07-16T13:49:25;1.42;;;1.13;;
65656;SDS011;57397;50.096;14.404;2023-07-16T13:51:51;1.65;;;1.10;;
65656;SDS011;57397;50.096;14.404;2023-07-16T13:54:16;1.40;;;1.20;;
65656;SDS011;57397;50.096;14.404;2023-07-16T13:56:42;1.30;;;1.20;;
65656;SDS011;57397;50.096;14.404;2023-07-16T13:59:07;2.10;;;1.15;;
65656;SDS011;57397;50.096;14.404;2023-07-16T14:01:33;1.60;;;1.20;;
65656;SDS011;57397;50.096;14.404;2023-07-16T14:04:02;2.08;;;1.38;;
65656;SDS011;57397;50.096;14.404;2023-07-16T14:06:28;1.67;;;1.25;;
65656;SDS011;57397;50.096;14.404;2023-07-16T14:08:53;1.98;;;1.23;;
65656;SDS011;57397;50.096;14.404;2023-07-16T14:11:20;1.85;;;1.30;;
65656;SDS011;57397;50.096;14.404;2023-07-16T14:13:46;2.25;;;1.30;;
65656;SDS011;57397;50.096;14.404;2023-07-16T14:16:16;1.80;;;1.40;;
65656;SDS011;57397;50.096;14.404;2023-07-16T14:18:42;1.40;;;1.23;;
65656;SDS011;57397;50.096;14.404;2023-07-16T14:21:07;1.20;;;1.05;;
65656;SDS011;57397;50.096;14.404;2023-07-16T14:23:33;1.48;;;1.20;;
65656;SDS011;57397;50.096;14.404;2023-07-16T14:25:58;1.95;;;1.25;;
65656;SDS011;57397;50.096;14.404;2023-07-16T14:28:24;1.73;;;1.25;;
65656;SDS011;57397;50.096;14.404;2023-07-16T14:30:50;1.48;;;1.15;;
65656;SDS011;57397;50.096;14.404;2023-07-16T14:33:15;1.42;;;1.15;;
65656;SDS011;57397;50.096;14.404;2023-07-16T14:35:41;1.98;;;1.20;;
65656;SDS011;57397;50.096;14.404;2023-07-16T14:38:06;6.03;;;1.30;;
65656;SDS011;57397;50.096;14.404;2023-07-16T14:40:32;1.50;;;1.30;;